Time;durP1;ratioP1;P1;durP2;ratioP2;P2;SDS_P1;SDS_P2;PMS_P1;PMS_P2;Temp;Humidity;BMP_temperature;BMP_pressure;BME280_temperature;BME280_humidity;BME280_pressure;Samples;Min_cycle;Max_cycle;Signal;HPM_P1;HPM_P2
2023/10/24 00:01:43;;;;;;;4.22;3.50;;;;;;;18.40;59.27;100308.38;5019192;28;20074;-40
2023/10/24 00:04:10;;;;;;;4.20;3.60;;;;;;;18.40;59.54;100313.75;5022185;28;20434;-39
2023/10/24 00:06:37;;;;;;;3.58;3.13;;;;;;;18.40;59.43;100305.69;5019625;28;20356;-39
2023/10/24 00:09:04;;;;;;;3.45;2.97;;;;;;;18.40;59.64;100303.00;5020154;28;20054;-40
2023/10/24 00:11:32;;;;;;;3.83;3.42;;;;;;;18.40;59.53;100303.00;5021504;28;20074;-40
2023/10/24 00:13:58;;;;;;;3.78;3.22;;;;;;;18.41;59.45;100310.03;5020025;28;20066;-40
2023/10/24 00:16:25;;;;;;;3.45;3.15;;;;;;;18.41;59.32;100302.00;5024756;28;20076;-40
2023/10/24 00:18:52;;;;;;;3.85;2.90;;;;;;;18.40;59.19;100303.84;5024405;28;20318;-40
2023/10/24 00:21:18;;;;;;;3.50;2.97;;;;;;;18.41;59.57;100293.94;5023023;28;20153;-40
2023/10/24 00:23:45;;;;;;;4.07;3.22;;;;;;;18.41;59.89;100294.81;5019135;28;20041;-40
2023/10/24 00:26:11;;;;;;;3.17;2.75;;;;;;;18.41;59.51;100292.13;5024015;28;20074;-40
2023/10/24 00:28:38;;;;;;;4.65;3.47;;;;;;;18.42;59.13;100287.59;5022674;28;20496;-40
2023/10/24 00:31:07;;;;;;;4.05;3.50;;;;;;;18.41;59.24;100289.44;5019213;28;20140;-40
2023/10/24 00:33:34;;;;;;;3.70;2.88;;;;;;;18.41;59.52;100273.34;5020874;28;20052;-40
2023/10/24 00:36:00;;;;;;;3.95;2.92;;;;;;;18.42;59.44;100282.22;5020945;28;20123;-40
2023/10/24 00:38:27;;;;;;;3.10;2.80;;;;;;;18.41;59.29;100272.47;5018643;28;20410;-40
2023/10/24 00:40:53;;;;;;;3.22;2.85;;;;;;;18.41;59.21;100267.13;5019492;28;20072;-40
2023/10/24 00:43:20;;;;;;;3.20;2.90;;;;;;;18.42;59.14;100276.88;5022958;28;20053;-40
2023/10/24 00:45:47;;;;;;;3.17;2.60;;;;;;;18.41;59.26;100278.72;5021593;28;20053;-40
2023/10/24 00:48:14;;;;;;;2.95;2.65;;;;;;;18.41;59.89;100270.66;5022012;28;20056;-40
2023/10/24 00:50:41;;;;;;;3.13;2.78;;;;;;;18.42;59.73;100276.88;5022468;28;20338;-40
2023/10/24 00:53:07;;;;;;;3.30;2.40;;;;;;;18.42;59.19;100268.81;5019425;28;20050;-40
2023/10/24 00:55:37;;;;;;;4.32;2.65;;;;;;;18.42;59.59;100275.00;5022680;28;20045;-40
2023/10/24 00:58:07;;;;;;;2.65;2.45;;;;;;;18.41;59.43;100275.16;5015801;28;20045;-40
2023/10/24 01:00:35;;;;;;;3.20;2.60;;;;;;;18.40;59.27;100263.59;5023070;28;20045;-40
2023/10/24 01:03:04;;;;;;;2.22;2.03;;;;;;;18.41;59.37;100262.63;5020477;28;20075;-40
2023/10/24 01:05:31;;;;;;;3.47;2.60;;;;;;;18.41;59.18;100261.75;5016860;28;20081;-41
2023/10/24 01:07:58;;;;;;;3.50;2.58;;;;;;;18.41;59.44;100267.97;5023404;28;20045;-40
2023/10/24 01:10:24;;;;;;;3.80;2.92;;;;;;;18.41;58.97;100264.44;5018818;28;20120;-40
2023/10/24 01:12:51;;;;;;;3.22;2.38;;;;;;;18.40;59.47;100260.09;5020611;28;20132;-40
2023/10/24 01:15:18;;;;;;;4.22;3.00;;;;;;;18.40;59.33;100260.09;5016120;28;20124;-40
2023/10/24 01:17:52;;;;;;;2.53;2.33;;;;;;;18.40;59.58;100252.03;5023679;28;20132;-40
2023/10/24 01:20:19;;;;;;;2.95;2.35;;;;;;;18.39;59.45;100251.19;5024155;28;20051;-40
2023/10/24 01:22:46;;;;;;;2.67;2.33;;;;;;;18.40;59.27;100262.75;5020342;28;20045;-40
2023/10/24 01:25:14;;;;;;;4.57;2.53;;;;;;;18.39;59.19;100259.25;5017548;28;20042;-40
2023/10/24 01:27:43;;;;;;;2.85;2.42;;;;;;;18.38;59.12;100262.94;5020991;28;20049;-40
2023/10/24 01:30:12;;;;;;;4.53;2.25;;;;;;;18.38;59.19;100252.22;5023798;28;20096;-40
2023/10/24 01:32:39;;;;;;;2.95;2.58;;;;;;;18.41;59.25;100261.75;5022036;28;20054;-40
2023/10/24 01:35:07;;;;;;;2.40;2.20;;;;;;;18.38;59.28;100249.53;5018962;28;20042;-40
2023/10/24 01:37:35;;;;;;;2.53;2.10;;;;;;;18.39;59.62;100243.16;5020564;28;20134;-40
2023/10/24 01:40:05;;;;;;;3.92;2.30;;;;;;;18.38;59.57;100252.22;5018748;28;20052;-40
2023/10/24 01:42:32;;;;;;;3.30;2.30;;;;;;;18.38;59.53;100252.22;5016606;28;20422;-40
2023/10/24 01:44:58;;;;;;;3.17;2.53;;;;;;;18.38;59.56;100246.84;5021164;28;20327;-39
2023/10/24 01:47:25;;;;;;;3.88;2.47;;;;;;;18.38;58.93;100237.97;5017571;28;20388;-40
2023/10/24 01:49:51;;;;;;;2.92;2.63;;;;;;;18.37;59.42;100247.88;5014721;28;20045;-39
2023/10/24 01:52:18;;;;;;;2.35;2.15;;;;;;;18.37;59.01;100238.94;5024317;28;20084;-40
2023/10/24 01:54:45;;;;;;;3.70;2.83;;;;;;;18.37;59.23;100244.31;5020068;28;20436;-39
2023/10/24 01:57:12;;;;;;;3.65;2.30;;;;;;;18.37;59.36;100241.63;5019558;28;20412;-39
2023/10/24 01:59:38;;;;;;;4.28;2.45;;;;;;;18.36;59.46;100238.13;5019060;28;20381;-40
2023/10/24 02:02:05;;;;;;;4.35;2.60;;;;;;;18.36;59.01;100239.97;5019703;28;20133;-39
2023/10/24 02:04:32;;;;;;;2.58;2.25;;;;;;;18.35;59.57;100236.44;5017499;28;20042;-39
2023/10/24 02:06:58;;;;;;;2.95;2.20;;;;;;;18.35;59.46;100238.31;5016671;28;20061;-39
2023/10/24 02:09:27;;;;;;;2.75;2.38;;;;;;;18.35;59.12;100243.66;5018436;28;20057;-39
2023/10/24 02:11:54;;;;;;;3.53;2.40;;;;;;;18.34;59.19;100240.16;5019177;28;20046;-40
2023/10/24 02:14:20;;;;;;;4.20;2.60;;;;;;;18.34;59.37;100239.31;5018537;28;20496;-39
2023/10/24 02:16:47;;;;;;;2.97;2.25;;;;;;;18.34;59.21;100229.41;5013051;28;20045;-40
2023/10/24 02:19:14;;;;;;;4.13;2.42;;;;;;;18.34;59.24;100231.25;5021657;28;20397;-39
2023/10/24 02:21:40;;;;;;;3.40;2.17;;;;;;;18.34;59.33;100228.59;5018992;28;20050;-39
2023/10/24 02:24:07;;;;;;;2.72;2.30;;;;;;;18.33;59.35;100233.13;5020457;28;20092;-39
2023/10/24 02:26:33;;;;;;;2.83;2.40;;;;;;;18.34;59.12;100233.94;5023039;28;20046;-39
2023/10/24 02:29:00;;;;;;;3.50;2.38;;;;;;;18.33;59.41;100218.84;5023017;28;20049;-40
2023/10/24 02:31:27;;;;;;;3.25;2.42;;;;;;;18.34;59.33;100231.25;5020477;28;20049;-39
2023/10/24 02:33:54;;;;;;;2.55;2.00;;;;;;;18.34;58.92;100228.59;5018821;28;20049;-40
2023/10/24 02:36:20;;;;;;;4.45;2.65;;;;;;;18.33;59.33;100224.19;5018478;28;20077;-39
2023/10/24 02:38:47;;;;;;;4.55;2.45;;;;;;;18.32;59.53;100217.16;5018589;28;20057;-39
2023/10/24 02:41:14;;;;;;;3.33;2.33;;;;;;;18.31;58.92;100219.03;5020992;28;20549;-39
2023/10/24 02:43:41;;;;;;;3.78;2.33;;;;;;;18.31;59.23;100210.97;5018976;28;20085;-39
2023/10/24 02:46:08;;;;;;;2.95;2.17;;;;;;;18.31;59.01;100218.19;5021266;28;20346;-40
2023/10/24 02:48:34;;;;;;;2.35;2.05;;;;;;;18.30;59.62;100213.84;5021153;28;20135;-39
2023/10/24 02:51:01;;;;;;;3.75;2.50;;;;;;;18.30;59.20;100213.84;5019581;28;20095;-40
2023/10/24 02:53:27;;;;;;;3.00;2.40;;;;;;;18.30;59.43;100220.03;5022439;28;20129;-40
2023/10/24 02:55:54;;;;;;;2.97;2.15;;;;;;;18.30;59.41;100221.88;5024532;28;20045;-40
2023/10/24 02:58:21;;;;;;;3.67;2.17;;;;;;;18.31;59.64;100220.88;5029218;28;20045;-40
2023/10/24 03:00:47;;;;;;;2.97;2.28;;;;;;;18.30;59.14;100221.88;5020523;28;20045;-40
2023/10/24 03:03:14;;;;;;;3.08;2.22;;;;;;;18.28;59.04;100222.03;5017568;28;20054;-40
2023/10/24 03:05:41;;;;;;;3.70;1.88;;;;;;;18.28;59.11;100223.88;5019054;28;20054;-40
2023/10/24 03:08:07;;;;;;;2.97;2.25;;;;;;;18.28;59.30;100222.03;5022160;28;20054;-40
2023/10/24 03:10:41;;;;;;;2.88;2.33;;;;;;;18.27;59.15;100233.78;5019347;28;20050;-40
2023/10/24 03:13:08;;;;;;;3.95;2.60;;;;;;;18.28;58.79;100239.97;5022301;28;20092;-39
2023/10/24 03:15:35;;;;;;;3.90;2.35;;;;;;;18.28;59.12;100245.34;5028433;28;20041;-39
2023/10/24 03:18:02;;;;;;;2.65;2.17;;;;;;;18.27;59.02;100243.69;5023709;28;20640;-39
2023/10/24 03:20:29;;;;;;;4.35;2.70;;;;;;;18.25;58.81;100241.16;5021368;28;20470;-39
2023/10/24 03:22:56;;;;;;;3.35;2.58;;;;;;;18.25;59.24;100244.69;5022286;28;20158;-39
2023/10/24 03:25:24;;;;;;;4.57;2.80;;;;;;;18.24;59.14;100240.31;5019957;28;20046;-39
2023/10/24 03:27:54;;;;;;;3.92;2.85;;;;;;;18.22;58.85;100242.34;5024634;28;20053;-39
2023/10/24 03:30:21;;;;;;;4.05;2.72;;;;;;;18.22;59.01;100245.03;5025344;28;20049;-39
2023/10/24 03:32:48;;;;;;;3.35;2.65;;;;;;;18.21;58.94;100237.13;5018773;28;20441;-39
2023/10/24 03:35:15;;;;;;;4.38;2.97;;;;;;;18.22;58.83;100246.88;5020448;28;20468;-39
2023/10/24 03:37:42;;;;;;;4.30;3.40;;;;;;;18.20;58.80;100243.50;5021007;28;20053;-39
2023/10/24 03:40:09;;;;;;;4.88;4.00;;;;;;;18.20;58.94;100244.34;5023139;28;20445;-39
2023/10/24 03:42:36;;;;;;;5.55;3.85;;;;;;;18.19;59.00;100241.84;5025118;28;20489;-39
2023/10/24 03:45:04;;;;;;;3.50;3.20;;;;;;;18.18;58.99;100249.06;5021137;28;20061;-39
2023/10/24 03:47:31;;;;;;;6.45;3.97;;;;;;;18.18;58.88;100241.00;5020854;28;20049;-39
2023/10/24 03:49:58;;;;;;;4.68;3.10;;;;;;;18.18;58.94;100240.19;5016218;28;20056;-39
2023/10/24 03:52:24;;;;;;;4.85;3.88;;;;;;;18.17;58.81;100246.53;5025508;28;20054;-39
2023/10/24 03:54:51;;;;;;;4.25;3.22;;;;;;;18.17;59.06;100249.19;5019021;28;20041;-39
2023/10/24 03:57:17;;;;;;;4.32;3.50;;;;;;;18.17;59.03;100250.06;5021575;28;20054;-39
2023/10/24 03:59:44;;;;;;;4.18;3.25;;;;;;;18.17;58.87;100246.53;5021727;28;20081;-39
2023/10/24 04:02:11;;;;;;;3.80;3.33;;;;;;;18.16;59.01;100237.63;5021709;28;20045;-39
2023/10/24 04:04:37;;;;;;;4.82;3.40;;;;;;;18.16;58.93;100248.38;5024966;28;20042;-39
2023/10/24 04:07:04;;;;;;;5.20;3.90;;;;;;;18.15;59.20;100248.56;5030580;28;20049;-39
2023/10/24 04:09:31;;;;;;;3.67;3.22;;;;;;;18.15;59.03;100254.75;5026183;28;20053;-39
2023/10/24 04:12:04;;;;;;;4.72;3.58;;;;;;;18.14;59.06;100250.41;5026688;28;20465;-39
2023/10/24 04:14:31;;;;;;;5.93;4.03;;;;;;;18.14;58.98;100250.41;5023070;28;20224;-39
2023/10/24 04:16:57;;;;;;;4.50;3.75;;;;;;;18.14;58.84;100249.56;5025756;28;20045;-39
2023/10/24 04:19:24;;;;;;;5.28;3.72;;;;;;;18.14;59.21;100241.53;5019436;28;20050;-40
2023/10/24 04:21:51;;;;;;;3.97;3.20;;;;;;;18.14;59.03;100241.53;5023940;28;20053;-40
2023/10/24 04:24:17;;;;;;;5.28;3.47;;;;;;;18.13;59.05;100237.13;5023447;28;20088;-39
2023/10/24 04:26:44;;;;;;;5.85;3.30;;;;;;;18.11;59.08;100242.69;5026211;28;20050;-39
2023/10/24 04:29:11;;;;;;;5.38;3.65;;;;;;;18.12;59.05;100236.31;5021024;28;20045;-40
2023/10/24 04:31:38;;;;;;;6.88;3.95;;;;;;;18.11;58.51;100237.31;5024910;28;20430;-40
2023/10/24 04:34:04;;;;;;;3.92;3.28;;;;;;;18.11;58.71;100229.28;5025001;28;20049;-40
2023/10/24 04:36:31;;;;;;;4.70;3.80;;;;;;;18.11;58.88;100240.00;5024225;28;20046;-40
2023/10/24 04:38:58;;;;;;;5.50;3.58;;;;;;;18.11;58.56;100231.94;5025993;28;20045;-40
2023/10/24 04:41:25;;;;;;;4.68;3.28;;;;;;;18.10;58.25;100224.91;5023986;28;20341;-40
2023/10/24 04:43:52;;;;;;;4.47;3.30;;;;;;;18.10;58.60;100218.72;5019598;28;20060;-39
2023/10/24 04:46:18;;;;;;;5.45;3.53;;;;;;;18.08;58.86;100224.25;5024868;28;20049;-40
2023/10/24 04:48:45;;;;;;;4.65;3.47;;;;;;;18.09;58.79;100225.06;5021509;28;20425;-39
2023/10/24 04:51:12;;;;;;;4.25;3.40;;;;;;;18.09;58.48;100219.72;5018974;28;20049;-40
2023/10/24 04:53:39;;;;;;;4.88;3.97;;;;;;;18.07;58.56;100211.84;5020395;28;20144;-40
2023/10/24 04:56:05;;;;;;;4.65;3.03;;;;;;;18.08;58.50;100218.03;5027968;28;20119;-39
2023/10/24 04:58:32;;;;;;;4.20;3.40;;;;;;;18.08;58.73;100208.16;5024356;28;20045;-39
2023/10/24 05:00:59;;;;;;;5.75;3.47;;;;;;;18.08;58.38;100208.16;5019342;28;20065;-39
2023/10/24 05:03:26;;;;;;;4.88;3.28;;;;;;;18.08;59.03;100218.03;5024033;28;20051;-40
2023/10/24 05:05:53;;;;;;;3.90;3.15;;;;;;;18.06;59.06;100207.50;5019311;28;20041;-39
2023/10/24 05:08:20;;;;;;;4.50;3.28;;;;;;;18.06;58.38;100207.50;5024587;28;20146;-40
2023/10/24 05:10:47;;;;;;;5.63;3.50;;;;;;;18.06;58.87;100207.50;5025599;28;20093;-39
2023/10/24 05:13:14;;;;;;;3.10;2.40;;;;;;;18.07;58.72;100211.00;5025606;28;20051;-39
2023/10/24 05:15:40;;;;;;;4.40;2.85;;;;;;;18.06;58.52;100201.31;5019233;28;20056;-39
2023/10/24 05:18:11;;;;;;;3.95;2.88;;;;;;;18.05;58.65;100200.47;5020817;28;20342;-39
2023/10/24 05:20:38;;;;;;;4.07;3.28;;;;;;;18.06;58.46;100199.44;5017191;28;20057;-39
2023/10/24 05:23:06;;;;;;;3.47;2.90;;;;;;;18.06;58.64;100202.13;5019565;28;20050;-39
2023/10/24 05:25:33;;;;;;;3.35;2.65;;;;;;;18.06;58.87;100202.13;5018588;28;20107;-40
2023/10/24 05:27:59;;;;;;;3.40;3.00;;;;;;;18.07;58.55;100200.28;5021744;28;20345;-39
2023/10/24 05:30:26;;;;;;;3.20;2.65;;;;;;;18.07;58.83;100189.56;5023238;28;20053;-39
2023/10/24 05:32:53;;;;;;;2.90;2.47;;;;;;;18.05;58.81;100189.75;5026388;28;20132;-39
2023/10/24 05:35:20;;;;;;;3.72;2.80;;;;;;;18.06;58.93;100179.84;5017511;28;20487;-40
2023/10/24 05:37:46;;;;;;;4.80;3.17;;;;;;;18.05;58.80;100186.19;5035768;28;20504;-40
2023/10/24 05:40:13;;;;;;;3.53;2.72;;;;;;;18.05;58.69;100181.69;5026582;28;20171;-40
2023/10/24 05:42:41;;;;;;;4.05;3.33;;;;;;;18.05;58.68;100175.47;5022779;28;20450;-40
2023/10/24 05:45:08;;;;;;;4.63;3.00;;;;;;;18.05;58.77;100180.84;5023623;28;20041;-40
2023/10/24 05:47:35;;;;;;;2.83;2.55;;;;;;;18.05;58.61;100170.97;5019698;28;20091;-40
2023/10/24 05:50:02;;;;;;;4.00;2.92;;;;;;;18.04;58.90;100177.31;5018188;28;20053;-40
2023/10/24 05:52:28;;;;;;;4.13;2.80;;;;;;;18.05;58.86;100187.06;5020119;28;20045;-40
2023/10/24 05:54:58;;;;;;;3.53;2.50;;;;;;;18.05;58.77;100192.41;5016191;28;20054;-40
2023/10/24 05:57:24;;;;;;;4.20;3.03;;;;;;;18.05;58.38;100189.75;5017637;28;20077;-40
2023/10/24 05:59:51;;;;;;;3.40;2.65;;;;;;;18.04;58.79;100185.38;5021423;28;20425;-39
2023/10/24 06:02:18;;;;;;;2.67;2.30;;;;;;;18.05;59.28;100196.91;5020426;28;20349;-40
2023/10/24 06:04:44;;;;;;;2.80;2.40;;;;;;;18.04;58.77;100198.78;5023730;28;20061;-40
2023/10/24 06:07:13;;;;;;;3.17;2.78;;;;;;;18.04;59.22;100192.56;5023643;28;20531;-40
2023/10/24 06:09:40;;;;;;;3.50;2.70;;;;;;;18.04;58.78;100198.78;5021447;28;20058;-40
2023/10/24 06:12:08;;;;;;;3.63;2.80;;;;;;;18.04;58.57;100205.97;5019321;28;20453;-40
2023/10/24 06:14:35;;;;;;;3.38;2.67;;;;;;;18.03;58.72;100207.81;5021255;28;20072;-40
2023/10/24 06:17:01;;;;;;;2.88;2.58;;;;;;;18.04;58.97;100212.19;5019484;28;20053;-40
2023/10/24 06:19:29;;;;;;;2.60;2.28;;;;;;;18.03;58.72;100205.16;5022885;28;20052;-40
2023/10/24 06:21:56;;;;;;;3.80;2.65;;;;;;;18.03;58.53;100207.81;5021468;28;20085;-40
2023/10/24 06:24:22;;;;;;;3.90;2.78;;;;;;;18.04;58.70;100208.66;5022263;28;20054;-40
2023/10/24 06:26:49;;;;;;;2.67;2.17;;;;;;;18.03;58.89;100210.50;5026596;28;20089;-40
2023/10/24 06:29:15;;;;;;;3.72;2.20;;;;;;;18.03;58.88;100223.91;5022168;28;20159;-40
2023/10/24 06:31:42;;;;;;;3.50;2.67;;;;;;;18.03;58.90;100218.56;5024615;28;20239;-39
2023/10/24 06:34:09;;;;;;;3.45;2.60;;;;;;;18.03;58.52;100228.44;5021794;28;20064;-40
2023/10/24 06:36:35;;;;;;;2.45;2.25;;;;;;;18.02;58.63;100235.66;5029555;28;20053;-40
2023/10/24 06:39:03;;;;;;;2.92;2.40;;;;;;;18.02;58.63;100229.47;5030053;28;20441;-40
2023/10/24 06:41:30;;;;;;;2.45;2.20;;;;;;;18.01;58.88;100231.31;5025139;28;20128;-40
2023/10/24 06:43:57;;;;;;;3.92;2.55;;;;;;;18.01;58.99;100236.66;5021611;28;20349;-40
2023/10/24 06:46:24;;;;;;;2.65;2.28;;;;;;;18.00;58.53;100237.66;5025467;28;20056;-40
2023/10/24 06:48:52;;;;;;;2.80;2.42;;;;;;;18.00;58.58;100232.28;5018866;28;20058;-39
2023/10/24 06:51:19;;;;;;;3.78;2.28;;;;;;;18.01;58.49;100231.31;5024634;28;20052;-40
2023/10/24 06:53:45;;;;;;;3.58;2.53;;;;;;;17.99;58.84;100231.47;5023177;28;20053;-40
2023/10/24 06:56:12;;;;;;;3.85;2.90;;;;;;;17.99;58.85;100236.81;5022618;28;20045;-40
2023/10/24 06:58:40;;;;;;;3.10;2.53;;;;;;;17.98;58.78;100245.88;5022346;28;20058;-40
2023/10/24 07:01:07;;;;;;;3.15;2.28;;;;;;;17.98;58.48;100247.72;5018673;28;20060;-40
2023/10/24 07:03:33;;;;;;;2.88;2.38;;;;;;;17.98;58.42;100242.38;5014870;28;20451;-40
2023/10/24 07:06:00;;;;;;;3.13;2.40;;;;;;;17.99;58.74;100249.41;5015172;28;20073;-40
2023/10/24 07:08:27;;;;;;;5.10;2.30;;;;;;;17.98;58.68;100253.09;5014672;28;20081;-40
2023/10/24 07:10:53;;;;;;;2.90;2.53;;;;;;;17.98;58.55;100240.53;5012526;28;20515;-40
2023/10/24 07:13:20;;;;;;;2.53;2.20;;;;;;;17.97;58.75;100251.41;5015226;28;20137;-40
2023/10/24 07:15:47;;;;;;;2.60;2.33;;;;;;;18.00;58.50;100251.06;5014584;28;20658;-40
2023/10/24 07:18:14;;;;;;;3.03;2.60;;;;;;;18.06;58.65;100242.34;5015499;28;20365;-40
2023/10/24 07:20:41;;;;;;;2.70;2.10;;;;;;;18.18;58.32;100230.28;5020451;28;20449;-40
2023/10/24 07:23:08;;;;;;;3.53;2.53;;;;;;;18.30;58.02;100230.75;5014325;28;20460;-40
2023/10/24 07:25:35;;;;;;;3.38;2.30;;;;;;;18.42;57.87;100225.88;5014725;28;20041;-40
2023/10/24 07:28:03;;;;;;;3.20;1.95;;;;;;;18.54;57.39;100224.50;5015400;28;20049;-40
2023/10/24 07:30:31;;;;;;;2.60;2.40;;;;;;;18.67;57.18;100227.47;5021489;28;20058;-40
2023/10/24 07:32:57;;;;;;;2.58;2.17;;;;;;;18.78;57.70;100217.41;5014998;28;20061;-40
2023/10/24 07:35:24;;;;;;;2.35;2.15;;;;;;;18.88;57.31;100226.91;5015361;28;20050;-40
2023/10/24 07:37:51;;;;;;;2.80;2.13;;;;;;;19.00;56.50;100216.63;5016873;28;20054;-40
2023/10/24 07:40:17;;;;;;;3.15;2.15;;;;;;;19.09;56.42;100222.81;5016866;28;20158;-40
2023/10/24 07:42:44;;;;;;;2.28;1.70;;;;;;;19.18;56.45;100219.06;5023695;28;20457;-40
2023/10/24 07:45:11;;;;;;;2.38;1.88;;;;;;;19.28;56.59;100218.84;5026367;28;20042;-40
2023/10/24 07:47:38;;;;;;;3.08;1.90;;;;;;;19.34;56.43;100213.59;5024708;28;20061;-40
2023/10/24 07:50:07;;;;;;;2.63;1.80;;;;;;;19.41;55.87;100222.59;5020689;28;20050;-40
2023/10/24 07:52:34;;;;;;;2.45;1.80;;;;;;;19.45;55.55;100215.84;5024471;28;20049;-40
2023/10/24 07:55:01;;;;;;;3.17;1.98;;;;;;;19.49;55.27;100214.50;5023479;28;20054;-40
2023/10/24 07:57:29;;;;;;;3.80;2.50;;;;;;;19.49;55.81;100210.97;5025031;28;20050;-40
2023/10/24 07:59:55;;;;;;;2.40;2.20;;;;;;;19.49;55.07;100214.50;5015713;28;20346;-40
2023/10/24 08:02:22;;;;;;;3.08;2.50;;;;;;;19.48;55.14;100212.00;5022725;28;20385;-40
2023/10/24 08:04:48;;;;;;;3.15;2.10;;;;;;;19.47;55.27;100204.94;5025058;28;20058;-40
2023/10/24 08:07:15;;;;;;;3.65;2.38;;;;;;;19.45;55.31;100207.78;5024989;28;20430;-40
2023/10/24 08:09:42;;;;;;;3.03;2.22;;;;;;;19.42;55.15;100200.13;5023549;28;20108;-40
2023/10/24 08:12:08;;;;;;;4.78;2.45;;;;;;;19.40;55.25;100195.91;5025877;28;20081;-40
2023/10/24 08:14:35;;;;;;;4.05;2.95;;;;;;;19.38;55.57;100197.97;5016879;28;20167;-40
2023/10/24 08:17:03;;;;;;;2.90;2.60;;;;;;;19.35;55.40;100204.53;5014448;28;20038;-39
2023/10/24 08:19:30;;;;;;;4.80;3.60;;;;;;;19.33;55.53;100192.28;5013799;28;20069;-39
2023/10/24 08:21:56;;;;;;;3.92;3.10;;;;;;;19.30;56.05;100196.16;5017549;28;20056;-40
2023/10/24 08:24:23;;;;;;;3.78;3.05;;;;;;;19.29;55.61;100202.53;5015639;28;20152;-40
2023/10/24 08:26:50;;;;;;;5.65;4.13;;;;;;;19.26;55.28;100192.16;5020103;28;20049;-40
2023/10/24 08:29:35;;;;;;;5.03;3.58;;;;;;;19.24;55.01;100194.19;5020929;28;20502;-39
2023/10/24 08:32:02;;;;;;;4.38;3.08;;;;;;;19.20;55.63;100201.75;5021841;28;20053;-39
2023/10/24 08:34:36;;;;;;;6.65;3.40;;;;;;;19.19;55.50;100201.94;5019163;28;20050;-39
2023/10/24 08:37:04;;;;;;;5.80;3.80;;;;;;;19.16;55.60;100200.44;5026168;28;20045;-40
2023/10/24 08:39:30;;;;;;;4.65;3.25;;;;;;;19.14;55.33;100197.09;5024756;28;20041;-39
2023/10/24 08:41:57;;;;;;;4.93;3.80;;;;;;;19.13;55.32;100195.41;5023250;28;20520;-39
2023/10/24 08:44:26;;;;;;;4.57;3.95;;;;;;;19.13;56.05;100197.25;5021146;28;20083;-39
2023/10/24 08:46:53;;;;;;;4.78;3.67;;;;;;;19.13;56.01;100203.47;5018955;28;20068;-39
2023/10/24 08:49:20;;;;;;;4.47;3.17;;;;;;;19.13;55.77;100197.25;5014611;28;20053;-39
2023/10/24 08:51:47;;;;;;;5.40;3.95;;;;;;;19.13;56.05;100206.16;5028440;28;20053;-40
2023/10/24 08:54:14;;;;;;;4.30;3.72;;;;;;;19.14;55.52;100215.06;5020389;28;20046;-40
2023/10/24 08:56:41;;;;;;;4.53;3.20;;;;;;;19.14;55.85;100201.63;5019029;28;20469;-39
2023/10/24 08:59:09;;;;;;;5.38;3.60;;;;;;;19.14;55.79;100212.38;5018297;28;20107;-39
2023/10/24 09:01:42;;;;;;;4.47;3.35;;;;;;;19.13;55.21;100210.69;5015179;28;20055;-40
2023/10/24 09:04:09;;;;;;;6.95;3.50;;;;;;;19.13;55.10;100216.06;5016207;28;20072;-40
2023/10/24 09:06:37;;;;;;;4.32;3.30;;;;;;;19.12;55.76;100222.44;5015234;28;20508;-40
2023/10/24 09:09:04;;;;;;;4.32;3.35;;;;;;;19.12;55.69;100220.59;5013530;28;20123;-40
2023/10/24 09:11:59;;;;;;;4.55;3.47;;;;;;;19.12;55.27;100219.75;5015024;28;20136;-40
2023/10/24 09:14:28;;;;;;;4.25;3.17;;;;;;;19.14;55.75;100218.59;5021171;28;20053;-40
2023/10/24 09:17:13;;;;;;;5.15;3.50;;;;;;;19.15;55.54;100212.19;5013990;28;20129;-40
2023/10/24 09:19:40;;;;;;;4.78;3.10;;;;;;;19.16;55.37;100213.03;5018068;28;20191;-40
2023/10/24 09:22:08;;;;;;;3.33;2.72;;;;;;;19.17;55.57;100223.59;5023565;28;20049;-40
2023/10/24 09:24:35;;;;;;;3.08;2.55;;;;;;;19.23;55.25;100230.94;5018884;28;20500;-40
2023/10/24 09:27:02;;;;;;;3.10;2.80;;;;;;;19.30;55.08;100230.25;5015376;28;20087;-40
2023/10/24 09:29:31;;;;;;;4.47;2.63;;;;;;;19.37;55.68;100239.28;5014533;28;20437;-41
2023/10/24 09:31:58;;;;;;;2.92;2.05;;;;;;;19.44;55.36;100229.50;5013359;28;20049;-40
2023/10/24 09:34:27;;;;;;;3.78;2.60;;;;;;;19.51;54.79;100235.00;5013748;28;20066;-40
2023/10/24 09:37:05;;;;;;;5.35;2.33;;;;;;;19.57;55.22;100226.22;5012579;28;20057;-40
2023/10/24 09:39:32;;;;;;;2.65;2.13;;;;;;;19.61;55.05;100220.31;5012669;28;20062;-40
2023/10/24 09:41:58;;;;;;;3.47;2.42;;;;;;;19.65;55.00;100228.88;5016139;28;20046;-40
2023/10/24 09:44:27;;;;;;;3.63;2.50;;;;;;;19.67;54.84;100229.53;5014252;28;20054;-40
2023/10/24 09:46:56;;;;;;;3.38;2.40;;;;;;;19.69;54.66;100231.00;5013100;28;20087;-40
2023/10/24 09:49:25;;;;;;;3.97;2.92;;;;;;;19.68;54.85;100231.19;5013280;28;20045;-40
2023/10/24 09:51:53;;;;;;;3.80;2.35;;;;;;;19.67;54.62;100226.84;5011150;28;20045;-40
2023/10/24 09:54:20;;;;;;;2.95;2.40;;;;;;;19.67;54.84;100226.84;5011408;28;20187;-40
2023/10/24 09:56:48;;;;;;;3.45;2.58;;;;;;;19.65;54.16;100216.25;5011656;28;20307;-40
2023/10/24 09:59:15;;;;;;;6.22;2.75;;;;;;;19.64;54.21;100219.97;5013236;28;20654;-40
2023/10/24 10:01:43;;;;;;;3.38;2.80;;;;;;;19.62;54.20;100224.72;5014701;28;20132;-40
2023/10/24 10:04:27;;;;;;;3.30;2.50;;;;;;;19.62;54.10;100221.19;5015282;28;20136;-40
2023/10/24 10:06:55;;;;;;;4.47;2.67;;;;;;;19.59;54.36;100216.97;5018967;28;20144;-40
2023/10/24 10:09:27;;;;;;;4.23;2.70;;;;;;;19.58;54.34;100207.22;5020490;28;20142;-40
2023/10/24 10:12:00;;;;;;;3.45;2.10;;;;;;;19.56;54.04;100201.19;5019188;28;20076;-40
2023/10/24 10:14:57;;;;;;;4.65;2.63;;;;;;;19.52;54.46;100201.72;5024062;28;20046;-40
2023/10/24 10:17:58;;;;;;;2.75;2.08;;;;;;;19.52;54.48;100209.78;5021602;28;20045;-40
2023/10/24 10:20:51;;;;;;;4.32;2.45;;;;;;;19.48;54.26;100207.44;5021026;28;20052;-40
2023/10/24 10:23:41;;;;;;;2.87;2.00;;;;;;;19.48;54.09;100204.75;5022765;28;20053;-39
2023/10/24 10:26:20;;;;;;;4.75;2.65;;;;;;;19.45;54.15;100209.66;5020575;28;20041;-40
2023/10/24 10:29:19;;;;;;;3.03;2.33;;;;;;;19.43;54.29;100225.13;5023311;28;20045;-40
2023/10/24 10:32:10;;;;;;;5.65;2.60;;;;;;;19.39;54.15;100229.19;5021426;28;20049;-40
2023/10/24 10:34:56;;;;;;;3.05;2.13;;;;;;;19.39;54.63;100221.97;5022676;28;20052;-40
2023/10/24 10:37:23;;;;;;;6.05;2.60;;;;;;;19.37;54.80;100209.72;5024646;28;20053;-40
2023/10/24 10:40:15;;;;;;;3.50;2.50;;;;;;;19.33;54.08;100203.00;5021301;28;20045;-40
2023/10/24 10:42:49;;;;;;;6.03;2.20;;;;;;;19.32;54.27;100210.25;5021246;28;20319;-40
2023/10/24 10:45:30;;;;;;;4.68;2.55;;;;;;;19.30;54.63;100212.28;5020376;28;20160;-40
2023/10/24 10:48:04;;;;;;;3.65;2.30;;;;;;;19.32;55.02;100222.84;5023556;28;20088;-40
2023/10/24 10:50:33;;;;;;;4.90;2.50;;;;;;;19.35;54.25;100227.88;5022701;28;20073;-41
2023/10/24 10:53:07;;;;;;;4.47;2.53;;;;;;;19.40;54.88;100220.09;5018135;28;20149;-40
2023/10/24 10:55:44;;;;;;;4.25;1.90;;;;;;;19.45;54.09;100223.91;5019997;28;20041;-40
2023/10/24 10:58:40;;;;;;;5.10;2.60;;;;;;;19.52;54.09;100229.44;5020159;28;20045;-40
2023/10/24 11:01:17;;;;;;;3.08;2.30;;;;;;;19.61;54.34;100216.78;5018674;28;20045;-40
2023/10/24 11:03:46;;;;;;;4.38;2.13;;;;;;;19.66;53.83;100217.94;5017052;28;20056;-40
2023/10/24 11:06:15;;;;;;;3.53;2.70;;;;;;;19.70;53.81;100221.13;5015602;28;20128;-40
2023/10/24 11:08:48;;;;;;;3.53;2.45;;;;;;;19.73;54.25;100215.34;5022033;28;20053;-40
2023/10/24 11:11:19;;;;;;;2.80;2.10;;;;;;;19.72;53.60;100209.16;5022817;28;20049;-40
2023/10/24 11:13:51;;;;;;;2.95;2.08;;;;;;;19.75;53.76;100204.44;5023037;28;20484;-41
2023/10/24 11:16:18;;;;;;;3.10;2.55;;;;;;;19.72;53.63;100209.16;5024196;28;20045;-40
2023/10/24 11:19:03;;;;;;;3.30;2.28;;;;;;;19.71;53.71;100199.41;5023169;28;20120;-40
2023/10/24 11:21:30;;;;;;;3.83;2.40;;;;;;;19.69;54.06;100201.44;5029657;28;20057;-40
2023/10/24 11:24:00;;;;;;;4.25;2.35;;;;;;;19.67;53.61;100203.47;5025571;28;20341;-40
2023/10/24 11:26:27;;;;;;;4.70;2.80;;;;;;;19.64;53.73;100201.16;5025066;28;20049;-40
2023/10/24 11:28:54;;;;;;;4.07;2.28;;;;;;;19.62;53.56;100197.81;5023831;28;20041;-40
2023/10/24 11:31:25;;;;;;;3.72;2.40;;;;;;;19.60;54.12;100198.97;5025018;28;20128;-40